createdAt,value
2022-10-09T00:00:22.428Z,0.00
2022-10-09T00:01:22.590Z,0.00
2022-10-09T00:02:22.759Z,0.00
2022-10-09T00:03:22.925Z,0.00
2022-10-09T00:04:23.104Z,0.00
2022-10-09T00:05:23.375Z,0.00
2022-10-09T00:06:23.436Z,0.00
2022-10-09T00:07:23.610Z,0.00
2022-10-09T00:08:23.754Z,0.00
2022-10-09T00:09:23.939Z,0.00
2022-10-09T00:10:24.101Z,0.00
2022-10-09T00:11:24.284Z,0.00
2022-10-09T00:12:24.455Z,0.00
2022-10-09T00:13:24.615Z,0.00
2022-10-09T00:14:24.796Z,0.00
2022-10-09T00:15:24.965Z,0.00
2022-10-09T00:16:25.164Z,0.00
2022-10-09T00:17:25.303Z,0.00
2022-10-09T00:18:25.444Z,0.00
2022-10-09T00:19:25.658Z,0.00
2022-10-09T00:20:25.814Z,0.00
2022-10-09T00:21:25.974Z,0.00
2022-10-09T00:22:26.134Z,0.00
2022-10-09T00:23:26.334Z,0.00
2022-10-09T00:24:26.503Z,0.00
2022-10-09T00:25:26.685Z,0.00
2022-10-09T00:26:26.844Z,0.00
2022-10-09T00:27:27.003Z,0.00
2022-10-09T00:28:27.244Z,0.00
2022-10-09T00:29:27.375Z,0.00
2022-10-09T00:30:27.650Z,0.00
2022-10-09T00:31:27.720Z,0.00
2022-10-09T00:32:27.864Z,0.00
2022-10-09T00:33:28.032Z,0.00
2022-10-09T00:34:28.254Z,0.00
2022-10-09T00:35:28.364Z,0.00
2022-10-09T00:36:28.531Z,0.00
2022-10-09T00:37:28.716Z,0.00
2022-10-09T00:38:28.874Z,0.00
2022-10-09T00:39:29.073Z,0.00
2022-10-09T00:40:29.210Z,0.00
2022-10-09T00:41:29.374Z,0.00
2022-10-09T00:42:29.535Z,0.00
2022-10-09T00:43:29.743Z,0.00
2022-10-09T00:44:29.912Z,0.00
2022-10-09T00:45:30.085Z,0.00
2022-10-09T00:46:30.315Z,0.00
2022-10-09T00:47:30.424Z,0.00
2022-10-09T00:48:30.583Z,0.00
2022-10-09T00:49:30.763Z,0.00
2022-10-09T00:50:30.922Z,0.00
2022-10-09T00:51:31.082Z,0.00
2022-10-09T00:52:31.250Z,0.00
2022-10-09T00:53:31.401Z,0.00
2022-10-09T00:54:31.582Z,0.00
2022-10-09T00:55:31.742Z,0.00
2022-10-09T00:56:31.902Z,0.00
2022-10-09T00:57:32.071Z,0.00
2022-10-09T00:58:32.254Z,0.00
2022-10-09T00:59:32.414Z,0.00
2022-10-09T01:00:32.579Z,0.00
2022-10-09T01:01:32.859Z,0.00
2022-10-09T01:02:32.929Z,0.00
2022-10-09T01:03:33.085Z,0.00
2022-10-09T01:04:33.241Z,0.00
2022-10-09T01:05:33.405Z,0.00
2022-10-09T01:06:33.562Z,0.00
2022-10-09T01:07:33.721Z,0.00
2022-10-09T01:08:33.917Z,0.00
2022-10-09T01:09:34.072Z,0.00
2022-10-09T01:10:34.220Z,0.00
2022-10-09T01:11:34.430Z,0.00
2022-10-09T01:12:34.593Z,0.00
2022-10-09T01:13:34.762Z,0.00
2022-10-09T01:14:34.930Z,0.00
2022-10-09T01:15:35.175Z,0.00
2022-10-09T01:16:35.318Z,0.00
2022-10-09T01:17:35.481Z,0.00
2022-10-09T01:18:35.650Z,0.00
2022-10-09T01:19:35.833Z,0.00
2022-10-09T01:20:35.987Z,0.00
2022-10-09T01:21:36.255Z,0.00
2022-10-09T01:22:36.310Z,0.00
2022-10-09T01:23:36.520Z,0.00
2022-10-09T01:24:36.710Z,0.00
2022-10-09T01:25:36.870Z,0.00
2022-10-09T01:26:37.027Z,0.00
2022-10-09T01:27:37.190Z,0.00
2022-10-09T01:28:37.408Z,0.00
2022-10-09T01:29:37.529Z,0.00
2022-10-09T01:30:37.748Z,0.00
2022-10-09T01:31:37.852Z,0.00
2022-10-09T01:32:38.003Z,0.00
2022-10-09T01:33:38.212Z,0.00
2022-10-09T01:34:38.376Z,0.00
2022-10-09T01:35:38.569Z,0.00
2022-10-09T01:36:38.730Z,0.00
2022-10-09T01:37:38.932Z,0.00
2022-10-09T01:38:39.100Z,0.00
2022-10-09T01:39:39.260Z,0.00
2022-10-09T01:40:39.420Z,0.00
2022-10-09T01:41:39.589Z,0.00
2022-10-09T01:42:39.755Z,0.00
2022-10-09T01:43:39.939Z,0.00
2022-10-09T01:44:40.106Z,0.00
2022-10-09T01:45:40.269Z,0.00
2022-10-09T01:46:40.453Z,0.00
2022-10-09T01:47:40.600Z,0.00
2022-10-09T01:48:40.769Z,0.00
2022-10-09T01:49:40.942Z,0.00
2022-10-09T01:50:41.102Z,0.00
2022-10-09T01:51:41.298Z,0.00
2022-10-09T01:52:41.644Z,0.00
2022-10-09T01:53:41.655Z,0.00
2022-10-09T01:54:41.798Z,0.00
2022-10-09T01:55:41.970Z,0.00
2022-10-09T01:56:42.129Z,0.00
2022-10-09T01:57:42.288Z,0.00
2022-10-09T01:58:42.465Z,0.00
2022-10-09T01:59:42.628Z,0.00
2022-10-09T02:00:42.787Z,0.00
2022-10-09T02:01:43.154Z,0.00
2022-10-09T02:02:43.199Z,0.00
2022-10-09T02:03:43.328Z,0.00
2022-10-09T02:04:43.490Z,0.00
2022-10-09T02:05:43.655Z,0.00
2022-10-09T02:06:43.815Z,0.00
2022-10-09T02:07:43.976Z,0.00
2022-10-09T02:08:44.149Z,0.00
2022-10-09T02:09:44.315Z,0.00
2022-10-09T02:10:44.467Z,0.00
2022-10-09T02:11:44.637Z,0.00
2022-10-09T02:12:44.798Z,0.00
2022-10-09T02:13:44.979Z,0.00
2022-10-09T02:14:45.148Z,0.00
2022-10-09T02:15:45.396Z,0.00
2022-10-09T02:16:45.468Z,0.00
2022-10-09T02:17:45.636Z,0.00
2022-10-09T02:18:45.807Z,0.00
2022-10-09T02:19:45.968Z,0.00
2022-10-09T02:20:46.127Z,0.00
2022-10-09T02:21:46.766Z,0.00
2022-10-09T02:22:46.747Z,0.00
2022-10-09T02:23:46.637Z,0.00
2022-10-09T02:24:46.808Z,0.00
2022-10-09T02:25:46.967Z,0.00
2022-10-09T02:26:47.126Z,0.00
2022-10-09T02:27:47.286Z,0.00
2022-10-09T02:28:47.503Z,0.00
2022-10-09T02:29:47.626Z,0.00
2022-10-09T02:30:47.831Z,0.00
2022-10-09T02:31:47.967Z,0.00
2022-10-09T02:32:48.255Z,0.00
2022-10-09T02:33:48.328Z,0.00
2022-10-09T02:34:48.487Z,0.00
2022-10-09T02:35:48.653Z,0.00
2022-10-09T02:36:48.815Z,0.00
2022-10-09T02:37:48.974Z,0.00
2022-10-09T02:38:49.156Z,0.00
2022-10-09T02:39:49.320Z,0.00
2022-10-09T02:40:49.551Z,0.00
2022-10-09T02:41:49.651Z,0.00
2022-10-09T02:42:50.165Z,0.00
2022-10-09T02:43:50.006Z,0.00
2022-10-09T02:44:50.180Z,0.00
2022-10-09T02:45:50.332Z,0.00
2022-10-09T02:46:50.591Z,0.00
2022-10-09T02:47:50.685Z,0.00
2022-10-09T02:48:50.865Z,0.00
2022-10-09T02:49:51.027Z,0.00
2022-10-09T02:50:51.187Z,0.00
2022-10-09T02:51:51.344Z,0.00
2022-10-09T02:52:51.669Z,0.00
2022-10-09T02:53:51.696Z,0.00
2022-10-09T02:54:51.854Z,0.00
2022-10-09T02:55:52.023Z,0.00
2022-10-09T02:56:52.182Z,0.00
2022-10-09T02:57:52.345Z,0.00
2022-10-09T02:58:52.530Z,0.00
2022-10-09T02:59:52.689Z,0.00
2022-10-09T03:00:52.851Z,0.00
2022-10-09T03:01:53.130Z,0.00
2022-10-09T03:02:53.536Z,0.00
2022-10-09T03:03:53.370Z,0.00
2022-10-09T03:04:53.524Z,0.00
2022-10-09T03:05:53.685Z,0.00
2022-10-09T03:06:53.844Z,0.00
2022-10-09T03:07:54.024Z,0.00
2022-10-09T03:08:54.195Z,0.00
2022-10-09T03:09:54.354Z,0.00
2022-10-09T03:10:54.524Z,0.00
2022-10-09T03:11:54.684Z,0.00
2022-10-09T03:12:54.884Z,0.00
2022-10-09T03:13:55.065Z,0.00
2022-10-09T03:14:55.229Z,0.00
2022-10-09T03:15:55.458Z,0.00
2022-10-09T03:16:55.563Z,0.00
2022-10-09T03:17:55.714Z,0.00
2022-10-09T03:18:55.934Z,0.00
2022-10-09T03:19:56.086Z,0.00
2022-10-09T03:20:56.283Z,0.00
2022-10-09T03:21:56.443Z,0.00
2022-10-09T03:22:56.604Z,0.00
2022-10-09T03:23:56.773Z,0.00
2022-10-09T03:24:56.943Z,0.00
2022-10-09T03:25:57.111Z,0.00
2022-10-09T03:26:57.303Z,0.00
2022-10-09T03:27:57.453Z,0.00
2022-10-09T03:28:57.636Z,0.00
2022-10-09T03:29:57.793Z,0.00
2022-10-09T03:30:57.984Z,0.00
2022-10-09T03:31:58.232Z,0.00
2022-10-09T03:32:58.309Z,0.00
2022-10-09T03:33:58.472Z,0.00
2022-10-09T03:34:58.633Z,0.00
2022-10-09T03:35:58.791Z,0.00
2022-10-09T03:36:58.983Z,0.00
2022-10-09T03:37:59.182Z,0.00
2022-10-09T03:38:59.343Z,0.00
2022-10-09T03:39:59.492Z,0.00
2022-10-09T03:40:59.662Z,0.00
2022-10-09T03:41:59.821Z,0.00
2022-10-09T03:42:59.991Z,0.00
2022-10-09T03:44:00.158Z,0.00
2022-10-09T03:45:00.326Z,0.00
2022-10-09T03:46:01.261Z,0.00
2022-10-09T03:47:00.653Z,0.00
2022-10-09T03:48:00.801Z,0.00
2022-10-09T03:49:00.981Z,0.00
2022-10-09T03:50:01.140Z,0.00
2022-10-09T03:51:01.299Z,0.00
2022-10-09T03:52:01.452Z,0.00
2022-10-09T03:53:01.651Z,0.00
2022-10-09T03:54:01.838Z,0.00
2022-10-09T03:55:01.993Z,0.00
2022-10-09T03:56:02.148Z,0.00
2022-10-09T03:57:02.342Z,0.00
2022-10-09T03:58:02.500Z,0.00
2022-10-09T03:59:02.708Z,0.00
2022-10-09T04:00:02.862Z,0.00
2022-10-09T04:01:03.115Z,0.00
2022-10-09T04:02:03.190Z,0.00
2022-10-09T04:03:03.447Z,0.00
2022-10-09T04:04:03.547Z,0.00
2022-10-09T04:05:03.720Z,0.00
2022-10-09T04:06:03.892Z,0.00
2022-10-09T04:07:04.042Z,0.00
2022-10-09T04:08:04.202Z,0.00
2022-10-09T04:09:04.404Z,0.00
2022-10-09T04:10:04.551Z,0.00
2022-10-09T04:11:04.751Z,0.00
2022-10-09T04:12:04.911Z,0.00
2022-10-09T04:13:05.070Z,0.00
2022-10-09T04:14:05.250Z,0.00
2022-10-09T04:15:05.400Z,0.00
2022-10-09T04:16:05.623Z,0.00
2022-10-09T04:17:05.740Z,0.00
2022-10-09T04:18:05.889Z,0.00
2022-10-09T04:19:06.410Z,0.00
2022-10-09T04:20:06.287Z,0.00
2022-10-09T04:21:06.450Z,0.00
2022-10-09T04:22:06.611Z,0.00
2022-10-09T04:23:06.801Z,0.00
2022-10-09T04:24:06.969Z,0.00
2022-10-09T04:25:07.129Z,0.00
2022-10-09T04:26:07.289Z,0.00
2022-10-09T04:27:07.449Z,0.00
2022-10-09T04:28:07.650Z,0.00
2022-10-09T04:29:07.819Z,0.00
2022-10-09T04:30:07.982Z,0.00
2022-10-09T04:31:08.202Z,0.00
2022-10-09T04:32:08.311Z,0.00
2022-10-09T04:33:12.805Z,0.00
2022-10-09T04:34:08.679Z,0.00
2022-10-09T04:35:08.839Z,0.00
2022-10-09T04:36:09.002Z,0.00
2022-10-09T04:37:09.169Z,0.00
2022-10-09T04:38:09.330Z,0.00
2022-10-09T04:39:09.508Z,0.00
2022-10-09T04:40:09.668Z,0.00
2022-10-09T04:41:09.828Z,0.00
2022-10-09T04:42:09.987Z,0.00
2022-10-09T04:43:10.150Z,0.00
2022-10-09T04:44:10.321Z,0.00
2022-10-09T04:45:10.478Z,0.00
2022-10-09T04:46:10.682Z,0.00
2022-10-09T04:47:11.510Z,0.00
2022-10-09T04:48:10.999Z,0.00
2022-10-09T04:49:11.176Z,0.00
2022-10-09T04:50:11.327Z,4.00
2022-10-09T04:51:11.521Z,0.00
2022-10-09T04:52:11.679Z,4.00
2022-10-09T04:53:11.837Z,4.00
2022-10-09T04:54:12.008Z,4.00
2022-10-09T04:55:12.178Z,4.00
2022-10-09T04:56:12.327Z,4.00
2022-10-09T04:57:12.525Z,8.00
2022-10-09T04:58:12.677Z,8.00
2022-10-09T04:59:12.891Z,12.00
2022-10-09T05:00:13.057Z,12.00
2022-10-09T05:01:13.278Z,12.00
2022-10-09T05:02:13.457Z,16.00
2022-10-09T05:03:13.577Z,20.00
2022-10-09T05:04:13.775Z,24.00
2022-10-09T05:05:13.936Z,24.00
2022-10-09T05:06:14.076Z,32.00
2022-10-09T05:07:14.259Z,40.00
2022-10-09T05:08:14.427Z,40.00
2022-10-09T05:09:14.630Z,52.00
2022-10-09T05:10:14.776Z,56.00
2022-10-09T05:11:14.966Z,64.00
2022-10-09T05:12:15.137Z,72.00
2022-10-09T05:13:15.316Z,84.00
2022-10-09T05:14:15.506Z,96.00
2022-10-09T05:15:15.686Z,108.00
2022-10-09T05:16:15.856Z,116.00
2022-10-09T05:17:17.937Z,128.00
2022-10-09T05:18:16.189Z,148.00
2022-10-09T05:19:16.394Z,160.00
2022-10-09T05:20:16.542Z,180.00
2022-10-09T05:21:16.707Z,196.00
2022-10-09T05:22:16.900Z,216.00
2022-10-09T05:23:17.085Z,232.00
2022-10-09T05:24:17.285Z,252.00
2022-10-09T05:25:17.464Z,272.00
2022-10-09T05:26:17.647Z,296.00
2022-10-09T05:27:17.835Z,320.00
2022-10-09T05:28:18.111Z,340.00
2022-10-09T05:29:18.226Z,368.00
2022-10-09T05:30:18.364Z,392.00
2022-10-09T05:31:18.630Z,420.00
2022-10-09T05:32:18.725Z,444.00
2022-10-09T05:33:18.916Z,472.00
2022-10-09T05:34:19.145Z,500.00
2022-10-09T05:35:19.277Z,528.00
2022-10-09T05:36:19.465Z,552.00
2022-10-09T05:37:19.657Z,584.00
2022-10-09T05:38:19.836Z,612.00
2022-10-09T05:39:20.044Z,644.00
2022-10-09T05:40:20.190Z,668.00
2022-10-09T05:41:20.385Z,708.00
2022-10-09T05:42:20.556Z,740.00
2022-10-09T05:43:20.744Z,764.00
2022-10-09T05:44:20.963Z,792.00
2022-10-09T05:45:21.093Z,820.00
2022-10-09T05:46:21.286Z,848.00
2022-10-09T05:47:21.423Z,876.00
2022-10-09T05:48:21.574Z,908.00
2022-10-09T05:49:21.790Z,936.00
2022-10-09T05:50:21.923Z,964.00
2022-10-09T05:51:22.113Z,992.00
2022-10-09T05:52:22.266Z,1020.00
2022-10-09T05:53:22.438Z,1048.00
2022-10-09T05:54:22.613Z,1080.00
2022-10-09T05:55:22.773Z,1104.00
2022-10-09T05:56:22.935Z,1132.00
2022-10-09T05:57:23.103Z,1164.00
2022-10-09T05:58:23.263Z,1188.00
2022-10-09T05:59:23.441Z,1220.00
2022-10-09T06:00:23.593Z,1244.00
2022-10-09T06:01:23.814Z,1268.00
2022-10-09T06:02:24.006Z,1296.00
2022-10-09T06:03:24.113Z,1320.00
2022-10-09T06:04:24.284Z,1348.00
2022-10-09T06:05:24.442Z,1376.00
2022-10-09T06:06:24.605Z,1404.00
2022-10-09T06:07:24.802Z,1428.00
2022-10-09T06:08:24.945Z,1448.00
2022-10-09T06:09:25.144Z,1476.00
2022-10-09T06:10:28.000Z,1500.00
2022-10-09T06:11:26.499Z,1528.00
2022-10-09T06:12:25.682Z,1560.00
2022-10-09T06:13:25.862Z,1596.00
2022-10-09T06:14:26.054Z,1624.00
2022-10-09T06:15:26.235Z,1684.00
2022-10-09T06:16:26.468Z,1724.00
2022-10-09T06:17:26.601Z,1720.00
2022-10-09T06:18:26.753Z,1728.00
2022-10-09T06:19:26.942Z,1744.00
2022-10-09T06:20:27.081Z,1772.00
2022-10-09T06:21:27.270Z,1792.00
2022-10-09T06:22:27.443Z,1820.00
2022-10-09T06:23:27.653Z,1848.00
2022-10-09T06:24:29.408Z,1876.00
2022-10-09T06:25:27.980Z,1912.00
2022-10-09T06:26:28.152Z,1948.00
2022-10-09T06:27:28.334Z,1984.00
2022-10-09T06:28:28.588Z,2028.00
2022-10-09T06:29:28.681Z,2076.00
2022-10-09T06:30:28.968Z,2116.00
2022-10-09T06:31:29.076Z,2144.00
2022-10-09T06:32:29.210Z,2172.00
2022-10-09T06:33:29.402Z,2216.00
2022-10-09T06:34:29.550Z,2248.00
2022-10-09T06:35:29.731Z,2292.00
2022-10-09T06:36:29.901Z,2336.00
2022-10-09T06:37:30.081Z,2384.00
2022-10-09T06:38:30.270Z,2440.00
2022-10-09T06:39:30.458Z,2492.00
2022-10-09T06:40:30.630Z,2576.00
2022-10-09T06:41:30.822Z,2608.00
2022-10-09T06:42:31.001Z,2680.00
2022-10-09T06:43:31.210Z,2744.00
2022-10-09T06:44:31.351Z,2832.00
2022-10-09T06:45:31.522Z,2904.00
2022-10-09T06:46:31.764Z,2976.00
2022-10-09T06:47:31.873Z,3040.00
2022-10-09T06:48:32.070Z,3112.00
2022-10-09T06:49:32.220Z,3176.00
2022-10-09T06:50:32.401Z,3244.00
2022-10-09T06:51:32.581Z,3304.00
2022-10-09T06:52:32.760Z,3360.00
2022-10-09T06:53:32.943Z,3412.00
2022-10-09T06:54:33.131Z,3452.00
2022-10-09T06:55:33.282Z,3472.00
2022-10-09T06:56:33.478Z,3504.00
2022-10-09T06:57:33.620Z,3544.00
2022-10-09T06:58:33.810Z,3572.00
2022-10-09T06:59:33.990Z,3580.00
2022-10-09T07:00:34.179Z,3560.00
2022-10-09T07:01:34.404Z,3544.00
2022-10-09T07:02:34.571Z,3536.00
2022-10-09T07:03:34.731Z,3544.00
2022-10-09T07:04:34.880Z,3544.00
2022-10-09T07:05:35.060Z,3536.00
2022-10-09T07:06:35.247Z,3524.00
2022-10-09T07:07:35.429Z,3508.00
2022-10-09T07:08:35.632Z,3516.00
2022-10-09T07:09:35.771Z,3500.00
2022-10-09T07:10:35.949Z,3444.00
2022-10-09T07:11:36.137Z,3392.00
2022-10-09T07:12:36.323Z,3356.00
2022-10-09T07:13:36.499Z,3300.00
2022-10-09T07:14:36.679Z,3336.00
2022-10-09T07:15:36.889Z,3432.00
2022-10-09T07:16:37.055Z,3660.00
2022-10-09T07:17:37.199Z,3672.00
2022-10-09T07:18:37.389Z,3544.00
2022-10-09T07:19:37.544Z,3528.00
2022-10-09T07:20:37.718Z,3880.00
2022-10-09T07:21:37.898Z,4444.00
2022-10-09T07:22:38.079Z,4904.00
2022-10-09T07:23:38.271Z,4996.00
2022-10-09T07:24:38.418Z,4676.00
2022-10-09T07:25:38.608Z,3960.00
2022-10-09T07:26:38.768Z,3836.00
2022-10-09T07:27:38.938Z,3544.00
2022-10-09T07:28:39.190Z,3588.00
2022-10-09T07:29:39.288Z,3548.00
2022-10-09T07:30:39.501Z,3584.00
2022-10-09T07:31:39.639Z,3756.00
2022-10-09T07:32:39.820Z,3956.00
2022-10-09T07:33:40.019Z,4504.00
2022-10-09T07:34:40.169Z,4832.00
2022-10-09T07:35:40.348Z,4444.00
2022-10-09T07:36:40.528Z,4296.00
2022-10-09T07:37:40.709Z,5180.00
2022-10-09T07:38:40.899Z,5776.00
2022-10-09T07:39:44.920Z,6236.00
2022-10-09T07:40:41.209Z,5636.00
2022-10-09T07:41:41.382Z,4904.00
2022-10-09T07:42:41.568Z,4816.00
2022-10-09T07:43:41.768Z,4800.00
2022-10-09T07:44:41.920Z,4624.00
2022-10-09T07:45:42.099Z,4704.00
2022-10-09T07:46:42.329Z,4744.00
2022-10-09T07:47:42.449Z,4592.00
2022-10-09T07:48:42.638Z,4864.00
2022-10-09T07:49:42.808Z,4548.00
2022-10-09T07:50:42.988Z,4232.00
2022-10-09T07:51:43.242Z,4084.00
2022-10-09T07:52:43.358Z,3896.00
2022-10-09T07:53:43.519Z,4132.00
2022-10-09T07:54:43.668Z,4568.00
2022-10-09T07:55:43.849Z,4996.00
2022-10-09T07:56:44.036Z,5312.00
2022-10-09T07:57:44.209Z,5440.00
2022-10-09T07:58:44.409Z,5324.00
2022-10-09T07:59:44.558Z,5468.00
2022-10-09T08:00:44.747Z,6584.00
2022-10-09T08:01:45.079Z,7856.00
2022-10-09T08:02:45.142Z,8344.00
2022-10-09T08:03:45.307Z,8752.00
2022-10-09T08:04:45.480Z,9472.00
2022-10-09T08:05:45.658Z,9472.00
2022-10-09T08:06:45.839Z,9264.00
2022-10-09T08:07:46.020Z,9300.00
2022-10-09T08:08:46.230Z,10792.00
2022-10-09T08:09:46.379Z,11576.00
2022-10-09T08:10:46.561Z,11988.00
2022-10-09T08:11:46.738Z,12208.00
2022-10-09T08:12:47.347Z,12672.00
2022-10-09T08:13:47.097Z,13096.00
2022-10-09T08:14:47.270Z,13352.00
2022-10-09T08:15:47.557Z,13612.00
2022-10-09T08:16:47.599Z,13908.00
2022-10-09T08:17:47.781Z,14420.00
2022-10-09T08:18:47.984Z,15016.00
2022-10-09T08:19:48.119Z,15456.00
2022-10-09T08:20:48.300Z,15264.00
2022-10-09T08:21:48.471Z,15584.00
2022-10-09T08:22:48.928Z,16288.00
2022-10-09T08:23:48.855Z,16192.00
2022-10-09T08:24:49.031Z,16608.00
2022-10-09T08:25:49.207Z,17184.00
2022-10-09T08:26:49.381Z,17664.00
2022-10-09T08:27:49.581Z,18944.00
2022-10-09T08:28:49.849Z,20672.00
2022-10-09T08:29:49.893Z,22208.00
2022-10-09T08:30:50.103Z,21280.00
2022-10-09T08:31:50.276Z,19328.00
2022-10-09T08:32:50.988Z,19456.00
2022-10-09T08:33:50.633Z,19136.00
2022-10-09T08:34:50.772Z,19008.00
2022-10-09T08:35:50.943Z,19328.00
2022-10-09T08:36:51.141Z,19872.00
2022-10-09T08:37:51.313Z,19552.00
2022-10-09T08:38:51.511Z,19872.00
2022-10-09T08:39:51.643Z,19616.00
2022-10-09T08:40:56.115Z,19552.00
2022-10-09T08:41:53.014Z,20128.00
2022-10-09T08:42:52.381Z,21664.00
2022-10-09T08:43:52.383Z,23072.00
2022-10-09T08:44:52.557Z,20128.00
2022-10-09T08:45:52.725Z,22048.00
2022-10-09T08:46:52.953Z,21472.00
2022-10-09T08:47:53.075Z,22400.00
2022-10-09T08:48:53.276Z,23264.00
2022-10-09T08:49:53.415Z,26304.00
2022-10-09T08:50:53.595Z,27968.00
2022-10-09T08:51:53.770Z,29664.00
2022-10-09T08:52:54.169Z,30400.00
2022-10-09T08:53:54.128Z,29920.00
2022-10-09T08:54:54.306Z,29824.00
2022-10-09T08:55:54.476Z,31904.00
2022-10-09T08:56:54.666Z,33856.00
2022-10-09T08:57:54.850Z,35936.00
2022-10-09T08:58:55.039Z,37344.00
2022-10-09T08:59:55.177Z,39136.00
2022-10-09T09:00:55.360Z,37568.00
2022-10-09T09:01:55.585Z,38368.00
2022-10-09T09:02:55.763Z,39040.00
2022-10-09T09:03:55.908Z,38176.00
2022-10-09T09:04:56.096Z,38720.00
2022-10-09T09:05:56.236Z,39040.00
2022-10-09T09:06:56.419Z,45568.00
2022-10-09T09:07:56.610Z,47456.00
2022-10-09T09:08:56.799Z,46272.00
2022-10-09T09:09:56.940Z,45664.00
2022-10-09T09:10:57.128Z,49088.00
2022-10-09T09:11:57.310Z,44480.00
2022-10-09T09:12:57.480Z,38336.00
2022-10-09T09:13:57.681Z,36576.00
2022-10-09T09:14:57.832Z,34016.00
2022-10-09T09:15:58.051Z,31776.00
2022-10-09T09:16:58.192Z,30560.00
2022-10-09T09:17:58.361Z,29984.00
2022-10-09T09:18:58.562Z,30784.00
2022-10-09T09:19:58.711Z,32192.00
2022-10-09T09:20:58.892Z,34368.00
2022-10-09T09:21:59.077Z,35168.00
2022-10-09T09:22:59.243Z,34784.00
2022-10-09T09:23:59.444Z,37952.00
2022-10-09T09:24:59.590Z,37792.00
2022-10-09T09:25:59.759Z,35680.00
2022-10-09T09:26:59.945Z,37088.00
2022-10-09T09:28:00.130Z,35264.00
2022-10-09T09:29:00.348Z,40320.00
2022-10-09T09:30:00.476Z,40288.00
2022-10-09T09:31:00.729Z,41504.00
2022-10-09T09:32:00.824Z,40736.00
2022-10-09T09:33:01.015Z,41216.00
2022-10-09T09:34:01.205Z,45760.00
2022-10-09T09:35:01.375Z,51072.00
2022-10-09T09:36:01.565Z,48192.00
2022-10-09T09:37:01.754Z,46208.00
2022-10-09T09:38:01.919Z,46368.00
2022-10-09T09:39:49.886Z,45952.00
2022-10-09T09:41:03.456Z,50880.00
2022-10-09T09:42:02.638Z,47008.00
2022-10-09T09:43:04.936Z,45248.00
2022-10-09T09:44:03.023Z,43296.00
2022-10-09T09:45:03.166Z,44576.00
2022-10-09T09:46:03.337Z,46624.00
2022-10-09T09:47:03.517Z,44288.00
2022-10-09T09:48:03.699Z,45600.00
2022-10-09T09:49:09.243Z,30144.00
2022-10-09T09:50:05.048Z,12400.00
2022-10-09T09:51:26.757Z,6540.00
2022-10-09T09:52:05.397Z,5236.00
2022-10-09T09:53:04.588Z,4940.00
2022-10-09T09:54:04.779Z,4692.00
2022-10-09T09:55:04.959Z,4552.00
2022-10-09T09:56:05.141Z,4472.00
2022-10-09T09:57:13.790Z,4388.00
2022-10-09T09:58:06.483Z,4336.00
2022-10-09T09:59:05.687Z,4284.00
2022-10-09T10:00:05.872Z,4236.00
2022-10-09T10:01:06.062Z,4212.00
2022-10-09T10:02:06.252Z,4188.00
2022-10-09T10:03:06.352Z,4216.00
2022-10-09T10:04:06.541Z,4152.00
2022-10-09T10:05:06.691Z,4140.00
2022-10-09T10:06:06.868Z,4136.00
2022-10-09T10:07:07.059Z,4224.00
2022-10-09T10:08:07.238Z,4328.00
2022-10-09T10:09:07.430Z,4356.00
2022-10-09T10:10:07.572Z,4312.00
2022-10-09T10:11:07.752Z,4244.00
2022-10-09T10:12:07.930Z,4188.00
2022-10-09T10:13:08.122Z,4220.00
2022-10-09T10:14:08.317Z,3816.00
2022-10-09T10:15:08.460Z,4080.00
2022-10-09T10:16:08.732Z,4204.00
2022-10-09T10:17:08.812Z,4204.00
2022-10-09T10:18:09.001Z,4140.00
2022-10-09T10:19:09.201Z,4116.00
2022-10-09T10:20:09.372Z,4144.00
2022-10-09T10:21:09.542Z,4040.00
2022-10-09T10:22:09.722Z,3992.00
2022-10-09T10:23:09.911Z,4004.00
2022-10-09T10:24:10.089Z,3980.00
2022-10-09T10:25:12.624Z,3988.00
2022-10-09T10:26:11.381Z,4008.00
2022-10-09T10:27:10.581Z,3892.00
2022-10-09T10:28:10.797Z,3876.00
2022-10-09T10:29:10.922Z,3828.00
2022-10-09T10:30:11.101Z,3784.00
2022-10-09T10:31:11.336Z,3788.00
2022-10-09T10:32:11.455Z,3740.00
2022-10-09T10:33:11.652Z,3760.00
2022-10-09T10:34:11.821Z,3756.00
2022-10-09T10:35:12.010Z,3804.00
2022-10-09T10:36:12.182Z,3832.00
2022-10-09T10:37:12.373Z,3864.00
2022-10-09T10:38:12.582Z,4012.00
2022-10-09T10:39:12.721Z,3848.00
2022-10-09T10:40:12.913Z,3880.00
2022-10-09T10:41:13.092Z,3860.00
2022-10-09T10:42:13.272Z,3764.00
2022-10-09T10:43:13.482Z,3732.00
2022-10-09T10:44:13.614Z,4020.00
2022-10-09T10:45:13.816Z,4084.00
2022-10-09T10:46:13.987Z,3888.00
2022-10-09T10:47:14.119Z,3880.00
2022-10-09T10:48:14.303Z,3992.00
2022-10-09T10:49:14.492Z,3944.00
2022-10-09T10:50:14.688Z,3752.00
2022-10-09T10:51:14.864Z,3744.00
2022-10-09T10:52:15.034Z,4352.00
2022-10-09T10:53:15.253Z,4744.00
2022-10-09T10:54:15.384Z,5372.00
2022-10-09T10:55:15.573Z,5176.00
2022-10-09T10:56:15.744Z,4344.00
2022-10-09T10:57:15.943Z,4408.00
2022-10-09T10:58:16.184Z,3980.00
2022-10-09T10:59:16.295Z,3884.00
2022-10-09T11:00:16.473Z,3992.00
2022-10-09T11:01:16.784Z,4040.00
2022-10-09T11:02:16.834Z,4152.00
2022-10-09T11:03:17.078Z,4408.00
2022-10-09T11:04:17.194Z,4576.00
2022-10-09T11:05:17.374Z,4956.00
2022-10-09T11:06:17.554Z,5600.00
2022-10-09T11:07:17.734Z,6640.00
2022-10-09T11:08:17.926Z,7116.00
2022-10-09T11:09:18.104Z,7820.00
2022-10-09T11:10:18.294Z,7300.00
2022-10-09T11:11:18.447Z,6108.00
2022-10-09T11:12:30.004Z,5504.00
2022-10-09T11:13:19.824Z,5564.00
2022-10-09T11:14:20.358Z,5416.00
2022-10-09T11:15:19.135Z,5832.00
2022-10-09T11:16:19.399Z,5968.00
2022-10-09T11:17:19.476Z,5976.00
2022-10-09T11:18:19.675Z,5856.00
2022-10-09T11:19:19.816Z,5928.00
2022-10-09T11:20:20.018Z,5580.00
2022-10-09T11:21:20.184Z,5160.00
2022-10-09T11:22:20.355Z,5408.00
2022-10-09T11:23:20.545Z,5180.00
2022-10-09T11:24:20.686Z,4868.00
2022-10-09T11:25:20.865Z,4536.00
2022-10-09T11:26:21.048Z,4560.00
2022-10-09T11:27:21.225Z,4452.00
2022-10-09T11:28:21.475Z,4312.00
2022-10-09T11:29:21.596Z,4232.00
2022-10-09T11:30:21.787Z,4272.00
2022-10-09T11:31:22.034Z,4652.00
2022-10-09T11:32:22.127Z,5164.00
2022-10-09T11:33:22.326Z,5192.00
2022-10-09T11:34:22.507Z,4976.00
2022-10-09T11:35:22.686Z,4808.00
2022-10-09T11:36:22.875Z,4808.00
2022-10-09T11:37:23.078Z,4952.00
2022-10-09T11:38:23.246Z,5060.00
2022-10-09T11:39:23.414Z,5124.00
2022-10-09T11:40:23.595Z,5652.00
2022-10-09T11:41:23.777Z,6300.00
2022-10-09T11:42:23.957Z,6744.00
2022-10-09T11:43:24.147Z,6484.00
2022-10-09T11:44:24.334Z,5960.00
2022-10-09T11:45:24.581Z,5248.00
2022-10-09T11:46:24.708Z,4776.00
2022-10-09T11:47:24.877Z,4352.00
2022-10-09T11:48:25.078Z,4148.00
2022-10-09T11:49:25.221Z,4048.00
2022-10-09T11:50:25.406Z,4072.00
2022-10-09T11:51:25.598Z,4336.00
2022-10-09T11:52:25.749Z,4708.00
2022-10-09T11:53:25.968Z,5144.00
2022-10-09T11:54:26.107Z,5136.00
2022-10-09T11:55:26.299Z,4996.00
2022-10-09T11:56:26.481Z,4876.00
2022-10-09T11:57:26.657Z,4464.00
2022-10-09T11:58:26.869Z,4000.00
2022-10-09T11:59:27.019Z,3712.00
2022-10-09T12:00:27.190Z,3540.00
2022-10-09T12:01:27.408Z,3436.00
2022-10-09T12:02:27.641Z,3296.00
2022-10-09T12:03:27.749Z,3188.00
2022-10-09T12:04:50.136Z,3112.00
2022-10-09T12:05:29.049Z,3108.00
2022-10-09T12:06:28.261Z,3084.00
2022-10-09T12:07:28.440Z,3064.00
2022-10-09T12:08:28.589Z,3040.00
2022-10-09T12:09:28.740Z,3080.00
2022-10-09T12:10:28.919Z,3036.00
2022-10-09T12:11:29.117Z,2716.00
2022-10-09T12:12:29.268Z,2636.00
2022-10-09T12:13:29.440Z,2972.00
2022-10-09T12:14:29.616Z,3032.00
2022-10-09T12:15:29.779Z,3036.00
2022-10-09T12:16:29.962Z,3036.00
2022-10-09T12:17:30.087Z,3036.00
2022-10-09T12:18:30.260Z,3080.00
2022-10-09T12:19:30.430Z,3212.00
2022-10-09T12:20:30.621Z,3444.00
2022-10-09T12:21:30.809Z,3648.00
2022-10-09T12:22:30.981Z,3820.00
2022-10-09T12:23:31.377Z,3964.00
2022-10-09T12:24:31.359Z,3888.00
2022-10-09T12:25:31.538Z,3996.00
2022-10-09T12:26:31.720Z,4332.00
2022-10-09T12:27:31.890Z,4368.00
2022-10-09T12:28:32.130Z,4608.00
2022-10-09T12:29:32.261Z,4532.00
2022-10-09T12:30:32.538Z,4244.00
2022-10-09T12:31:32.679Z,4324.00
2022-10-09T12:32:32.805Z,4088.00
2022-10-09T12:33:33.001Z,3732.00
2022-10-09T12:34:33.142Z,3176.00